Time;durP1;ratioP1;P1;durP2;ratioP2;P2;SDS_P1;SDS_P2;PMS_P1;PMS_P2;Temp;Humidity;BMP_temperature;BMP_pressure;BME280_temperature;BME280_humidity;BME280_pressure;Samples;Min_cycle;Max_cycle;Signal;HPM_P1;HPM_P2
2022/09/24 00:03:29;;;;;;;;;;;7.70;94.60;;;5.81;76.66;100323.09;10296546;28;96661;-85
2022/09/24 00:08:33;;;;;;;;;;;7.60;94.80;;;5.74;77.06;100324.63;10296163;28;96576;-86
2022/09/24 00:13:35;;;;;;;;;;;7.60;94.70;;;5.68;77.17;100320.72;10276878;28;98130;-86
2022/09/24 00:18:39;;;;;;;;;;;7.50;94.90;;;5.62;77.25;100323.88;10295575;28;96569;-86
2022/09/24 00:23:42;;;;;;;;;;;7.50;94.80;;;5.59;77.33;100317.09;10297272;28;96666;-85
2022/09/24 00:28:48;;;;;;;;;;;7.50;95.00;;;5.54;77.45;100323.72;10292366;28;97201;-86
2022/09/24 00:33:51;;;;;;;;;;;7.40;95.10;;;5.48;77.60;100311.06;10295167;28;96776;-86
2022/09/24 00:38:56;;;;;;;;;;;7.40;95.60;;;5.42;77.73;100312.44;10293872;28;96557;-86
2022/09/24 00:43:59;;;;;;;;;;;7.30;95.40;;;5.39;77.59;100310.03;10292641;28;96628;-85
2022/09/24 00:49:09;;;;;;;;;;;7.20;95.70;;;5.33;77.77;100300.88;10284827;28;96693;-87
2022/09/24 00:54:17;;;;;;;;;;;7.20;95.90;;;5.29;78.01;100299.47;10293390;28;96734;-86
2022/09/24 00:59:22;;;;;;;;;;;7.10;96.00;;;5.23;78.04;100284.19;10290672;28;97062;-86
2022/09/24 01:04:26;;;;;;;;;;;7.10;95.70;;;5.23;78.04;100299.16;10274467;28;96626;-85
2022/09/24 01:09:30;;;;;;;;;;;7.10;96.00;;;5.19;78.53;100298.59;10294188;28;96703;-86
2022/09/24 01:14:51;;;;;;;;;;;7.10;96.30;;;5.12;78.31;100291.34;10292868;28;96702;-86
2022/09/24 01:20:01;;;;;;;;;;;7.00;96.50;;;5.08;78.67;100286.31;10290752;28;98433;-85
2022/09/24 01:25:58;;;;;;;;;;;6.90;96.50;;;5.03;78.63;100285.88;10299653;28;96718;-85
2022/09/24 01:31:32;;;;;;;;;;;6.90;97.00;;;5.01;79.18;100281.72;10202237;28;96973;-85
2022/09/24 01:36:36;;;;;;;;;;;6.90;96.70;;;5.02;79.25;100280.75;10299061;28;97443;-86
2022/09/24 01:41:41;;;;;;;;;;;6.90;97.00;;;5.01;79.10;100277.28;10300737;28;97630;-86
2022/09/24 01:46:44;;;;;;;;;;;6.90;97.30;;;4.98;79.13;100274.09;10300762;28;98252;-86
2022/09/24 01:51:51;;;;;;;;;;;6.80;97.20;;;4.96;79.14;100270.72;10279554;28;97018;-85
2022/09/24 01:57:04;;;;;;;;;;;6.80;97.30;;;4.93;79.47;100269.19;10300591;28;97527;-85
2022/09/24 02:02:14;;;;;;;;;;;6.80;97.30;;;4.88;79.35;100268.75;10297736;28;97895;-85
2022/09/24 02:07:32;;;;;;;;;;;6.80;97.50;;;4.84;79.26;100275.22;10284028;28;96548;-85
2022/09/24 02:12:41;;;;;;;;;;;6.70;97.70;;;4.80;79.38;100273.84;10299232;28;97207;-85
2022/09/24 02:17:47;;;;;;;;;;;6.70;97.90;;;4.75;79.55;100276.03;10287503;28;97337;-85
2022/09/24 02:22:50;;;;;;;;;;;6.70;97.80;;;4.74;79.55;100269.91;10311437;28;96602;-85
2022/09/24 02:27:53;;;;;;;;;;;6.60;97.90;;;4.72;79.77;100263.94;10299407;28;96552;-85
2022/09/24 02:32:56;;;;;;;;;;;6.60;98.20;;;4.68;79.96;100272.22;10282325;28;97286;-84
2022/09/24 02:37:59;;;;;;;;;;;6.60;97.90;;;4.68;80.01;100278.34;10283599;28;96558;-85
2022/09/24 02:43:07;;;;;;;;;;;6.60;98.40;;;4.64;80.15;100276.06;10297570;28;96553;-85
2022/09/24 02:48:10;;;;;;;;;;;6.50;98.60;;;4.62;80.25;100270.94;10300056;28;97362;-85
2022/09/24 02:53:13;;;;;;;;;;;6.50;98.50;;;4.62;80.09;100270.94;10281110;28;96635;-86
2022/09/24 02:58:15;;;;;;;;;;;6.50;98.70;;;4.60;80.25;100275.50;10298743;28;98181;-86
2022/09/24 03:03:18;;;;;;;;;;;6.50;99.10;;;4.55;80.41;100267.97;10297453;28;97510;-85
2022/09/24 03:08:23;;;;;;;;;;;6.50;98.80;;;4.53;80.53;100276.97;10297494;28;97114;-86
2022/09/24 03:13:26;;;;;;;;;;;6.40;99.40;;;4.46;80.98;100276.63;10296233;28;98055;-85
2022/09/24 03:18:29;;;;;;;;;;;6.30;99.60;;;4.42;80.86;100269.13;10297842;28;96632;-85
2022/09/24 03:23:31;;;;;;;;;;;6.30;99.30;;;4.42;80.65;100258.59;10281166;28;96679;-85
2022/09/24 03:28:34;;;;;;;;;;;6.30;99.50;;;4.42;80.77;100255.97;10297777;28;96812;-85
2022/09/24 03:33:42;;;;;;;;;;;6.30;99.50;;;4.40;80.80;100263.16;10280638;28;96625;-85
2022/09/24 03:38:47;;;;;;;;;;;6.30;99.70;;;4.34;80.95;100256.59;10294488;28;96928;-85
2022/09/24 03:43:49;;;;;;;;;;;6.20;99.50;;;4.31;81.03;100248.94;10310135;28;98231;-85
2022/09/24 03:48:52;;;;;;;;;;;6.20;99.70;;;4.25;81.14;100252.09;10302568;28;96614;-85
2022/09/24 03:53:55;;;;;;;;;;;6.20;99.90;;;4.20;81.33;100254.28;10295433;28;96643;-86
2022/09/24 03:58:58;;;;;;;;;;;6.10;99.90;;;4.18;81.17;100249.13;10306718;28;96507;-86
2022/09/24 04:04:01;;;;;;;;;;;6.10;99.90;;;4.15;81.15;100251.19;10294004;28;96521;-86
2022/09/24 04:09:03;;;;;;;;;;;6.10;99.90;;;4.11;81.34;100255.84;10294105;28;96609;-87
2022/09/24 04:14:06;;;;;;;;;;;6.00;99.90;;;4.08;81.28;100248.22;10295649;28;98046;-87
2022/09/24 04:19:09;;;;;;;;;;;6.00;99.90;;;4.06;81.59;100249.28;10278378;28;96566;-87
2022/09/24 04:24:12;;;;;;;;;;;6.00;99.90;;;4.03;81.54;100242.50;10291804;28;96654;-87
2022/09/24 04:29:15;;;;;;;;;;;6.00;99.90;;;4.03;81.99;100256.47;10280849;28;96689;-87
2022/09/24 04:34:19;;;;;;;;;;;6.00;99.90;;;4.01;81.75;100255.75;10294986;28;96804;-86
2022/09/24 04:39:25;;;;;;;;;;;5.90;99.90;;;4.00;81.78;100248.81;10295108;28;97863;-86
2022/09/24 04:44:29;;;;;;;;;;;5.90;99.90;;;4.02;82.33;100249.56;10295630;28;97331;-86
2022/09/24 04:49:32;;;;;;;;;;;5.90;99.90;;;4.07;82.26;100243.06;10294542;28;97993;-86
2022/09/24 04:54:34;;;;;;;;;;;6.00;99.90;;;4.13;82.22;100258.34;10294320;28;96614;-86
2022/09/24 04:59:37;;;;;;;;;;;6.00;99.90;;;4.20;82.76;100259.53;10261670;28;97950;-87
2022/09/24 05:04:40;;;;;;;;;;;6.10;99.90;;;4.28;82.87;100252.69;10300814;28;96587;-87
2022/09/24 05:09:54;;;;;;;;;;;6.20;99.90;;;4.40;82.89;100248.19;10301342;28;96622;-88
2022/09/24 05:15:00;;;;;;;;;;;6.30;99.90;;;4.51;83.02;100245.53;10301313;28;96673;-88
2022/09/24 05:20:07;;;;;;;;;;;6.40;99.90;;;4.62;83.36;100252.53;10299712;28;96727;-88
2022/09/24 05:25:11;;;;;;;;;;;6.50;99.90;;;4.78;83.26;100252.88;10299907;28;96596;-88
2022/09/24 05:30:14;;;;;;;;;;;6.70;99.90;;;4.98;83.78;100242.47;10300057;28;97360;-88
2022/09/24 05:35:22;;;;;;;;;;;6.90;99.90;;;5.19;84.18;100239.78;10261909;28;96564;-88
2022/09/24 05:45:50;;;;;;;;;;;7.30;99.90;;;5.58;84.11;100240.78;10319481;28;98674;-88
2022/09/24 05:50:55;;;;;;;;;;;7.50;99.90;;;5.73;84.41;100243.84;10300498;28;98705;-87
2022/09/24 05:55:58;;;;;;;;;;;7.70;99.90;;;5.83;83.83;100255.25;10297852;28;96949;-88
2022/09/24 06:01:01;;;;;;;;;;;7.70;99.90;;;5.88;83.49;100248.63;10306331;28;96674;-87
2022/09/24 06:06:05;;;;;;;;;;;7.80;99.90;;;5.99;83.26;100266.13;10298132;28;96650;-90
2022/09/24 06:11:08;;;;;;;;;;;7.90;99.90;;;6.12;83.33;100264.09;10295870;28;96593;-88
2022/09/24 06:16:13;;;;;;;;;;;8.00;99.90;;;6.28;83.31;100257.41;10296710;28;96652;-88
2022/09/24 06:21:19;;;;;;;;;;;8.20;99.90;;;6.55;83.38;100262.00;10299194;28;96629;-89
2022/09/24 06:26:21;;;;;;;;;;;8.40;99.90;;;6.78;83.38;100255.44;10296820;28;96966;-88
2022/09/24 06:31:24;;;;;;;;;;;8.60;99.90;;;7.05;83.22;100265.22;10295584;28;97329;-88
2022/09/24 06:36:28;;;;;;;;;;;8.90;99.90;;;7.33;82.57;100257.38;10282961;28;98632;-86
2022/09/24 06:41:30;;;;;;;;;;;9.20;99.90;;;7.60;82.11;100273.22;10298629;28;96607;-84
2022/09/24 06:46:33;;;;;;;;;;;9.40;99.90;;;7.93;81.27;100269.16;10296782;28;97048;-83
2022/09/24 06:51:36;;;;;;;;;;;9.70;99.90;;;8.16;81.02;100266.91;10292266;28;99050;-87
2022/09/24 06:56:39;;;;;;;;;;;10.00;99.90;;;8.38;80.47;100264.81;10296516;28;97327;-87
2022/09/24 07:01:41;;;;;;;;;;;10.20;99.90;;;8.48;79.46;100249.69;10288755;28;98306;-87
2022/09/24 07:12:10;;;;;;;;;;;10.50;99.10;;;8.79;78.51;100260.69;10249093;28;96872;-87
2022/09/24 07:17:13;;;;;;;;;;;10.70;99.00;;;9.03;78.22;100265.31;10251226;28;96700;-87
2022/09/24 07:22:17;;;;;;;;;;;10.90;99.10;;;9.33;78.46;100267.47;10256956;28;97742;-87
2022/09/24 07:27:20;;;;;;;;;;;11.20;99.10;;;9.59;78.05;100270.06;10250827;28;97289;-88
2022/09/24 07:32:23;;;;;;;;;;;11.40;99.20;;;9.78;77.19;100278.78;10255976;28;96636;-87
2022/09/24 07:37:32;;;;;;;;;;;11.60;98.90;;;10.02;76.57;100278.03;10228452;28;98381;-85
2022/09/24 07:42:36;;;;;;;;;;;11.80;98.10;;;10.32;76.08;100281.94;10253733;28;97233;-88
2022/09/24 07:47:38;;;;;;;;;;;12.10;98.00;;;10.71;75.61;100274.13;10251285;28;96772;-88
2022/09/24 07:52:41;;;;;;;;;;;12.50;98.00;;;10.98;74.40;100276.44;10256359;28;96597;-89
2022/09/24 07:57:48;;;;;;;;;;;12.80;97.60;;;11.26;73.68;100278.69;10251585;28;97953;-89
2022/09/24 08:02:52;;;;;;;;;;;13.10;97.30;;;11.44;72.57;100268.66;10235294;28;96855;-87
2022/09/24 08:07:56;;;;;;;;;;;13.30;96.90;;;11.55;71.66;100271.97;10245062;28;97519;-89
2022/09/24 08:13:02;;;;;;;;;;;13.40;96.40;;;11.69;70.78;100268.56;10291056;28;96730;-89
2022/09/24 08:18:05;;;;;;;;;;;13.60;96.10;;;11.82;69.78;100268.06;10277043;28;96653;-88
2022/09/24 08:23:11;;;;;;;;;;;13.70;95.60;;;11.82;68.67;100268.88;10294373;28;98021;-90
2022/09/24 08:28:18;;;;;;;;;;;13.80;95.00;;;11.85;68.50;100268.53;10293289;28;97127;-89
2022/09/24 08:33:22;;;;;;;;;;;13.80;94.70;;;12.02;68.60;100256.78;10303398;28;97473;-89
2022/09/24 08:38:24;;;;;;;;;;;14.00;94.70;;;12.20;68.34;100253.00;10307532;28;97947;-89
2022/09/24 08:43:41;;;;;;;;;;;14.20;94.40;;;12.48;68.26;100248.81;10294880;28;96715;-89
2022/09/24 08:48:50;;;;;;;;;;;14.40;94.50;;;12.76;67.57;100250.88;10293738;28;96750;-89
2022/09/24 08:54:08;;;;;;;;;;;14.60;94.10;;;13.00;67.27;100247.97;10297039;28;96638;-88
2022/09/24 08:59:27;;;;;;;;;;;14.90;94.10;;;13.16;66.07;100241.66;10278347;28;96654;-88
2022/09/24 09:04:38;;;;;;;;;;;15.10;93.40;;;13.31;65.31;100233.66;10307069;28;96562;-89
2022/09/24 09:09:54;;;;;;;;;;;15.20;92.70;;;13.48;64.28;100227.13;10293344;28;96580;-89
2022/09/24 09:15:11;;;;;;;;;;;15.40;92.70;;;13.77;64.76;100217.41;10273792;28;97480;-84
2022/09/24 09:20:26;;;;;;;;;;;15.60;92.60;;;13.91;63.00;100220.06;10297568;28;96675;-85
2022/09/24 09:25:34;;;;;;;;;;;15.90;91.80;;;14.00;63.57;100212.75;10286046;28;97332;-86
2022/09/24 09:30:43;;;;;;;;;;;16.00;91.80;;;14.37;62.55;100208.16;10275335;28;98030;-85
2022/09/24 09:36:23;;;;;;;;;;;16.20;91.00;;;14.69;59.96;100196.97;10285808;28;96951;-84
2022/09/24 09:42:14;;;;;;;;;;;16.50;90.30;;;15.05;58.30;100195.09;10269401;28;97433;-85
2022/09/24 09:47:36;;;;;;;;;;;16.80;89.80;;;15.41;56.64;100192.19;10263436;28;97347;-85
2022/09/24 09:52:38;;;;;;;;;;;17.20;87.70;;;15.67;55.65;100183.50;10286120;28;96837;-85
2022/09/24 09:57:41;;;;;;;;;;;17.50;85.90;;;15.90;54.51;100191.19;10298503;28;96744;-85
2022/09/24 10:02:49;;;;;;;;;;;17.70;85.00;;;16.06;53.37;100180.06;10285157;28;98054;-85
2022/09/24 10:07:52;;;;;;;;;;;17.90;82.20;;;16.20;53.12;100191.66;10293346;28;98174;-86
2022/09/24 10:13:11;;;;;;;;;;;18.00;81.70;;;16.28;52.01;100181.53;10308736;28;96777;-86
2022/09/24 10:18:14;;;;;;;;;;;18.20;81.30;;;16.45;51.28;100159.69;10299581;28;96824;-84
2022/09/24 10:23:20;;;;;;;;;;;18.30;78.50;;;16.70;51.39;100163.41;10289630;28;98250;-86
2022/09/24 10:33:46;;;;;;;;;;;18.90;77.40;;;17.51;48.34;100154.06;10293525;28;96487;-86
2022/09/24 10:38:49;;;;;;;;;;;19.30;72.70;;;17.90;46.63;100153.88;10295376;28;97271;-85
2022/09/24 10:43:53;;;;;;;;;;;19.60;70.40;;;18.10;45.39;100139.44;10294403;28;96616;-85
2022/09/24 10:49:01;;;;;;;;;;;19.90;69.90;;;18.25;45.21;100144.53;10291459;28;96780;-83
2022/09/24 10:54:47;;;;;;;;;;;20.00;66.90;;;18.26;44.40;100124.66;10295645;28;96989;-84
2022/09/24 10:59:53;;;;;;;;;;;20.10;64.80;;;18.43;45.13;100125.75;10269996;28;98048;-84
2022/09/24 11:05:20;;;;;;;;;;;20.30;67.40;;;18.81;45.17;100117.53;10292526;28;98338;-84
2022/09/24 11:10:29;;;;;;;;;;;20.70;65.90;;;19.30;43.50;100113.00;10280061;28;96700;-85
2022/09/24 11:15:40;;;;;;;;;;;21.30;66.50;;;19.55;42.88;100117.44;10288981;28;96806;-83
2022/09/24 11:21:02;;;;;;;;;;;21.70;63.20;;;19.81;41.41;100105.50;10298931;28;96840;-84
2022/09/24 11:26:14;;;;;;;;;;;22.00;62.40;;;19.70;41.40;100105.22;10297420;28;97449;-83
2022/09/24 11:31:53;;;;;;;;;;;21.90;60.40;;;19.83;40.88;100104.22;10296326;28;97597;-84
2022/09/24 11:37:19;;;;;;;;;;;22.10;59.40;;;19.75;39.52;100091.06;10250745;28;97015;-84
2022/09/24 11:42:27;;;;;;;;;;;21.90;56.80;;;19.44;39.98;100097.50;10294847;28;96628;-83
2022/09/24 11:48:24;;;;;;;;;;;21.50;58.40;;;19.42;40.47;100091.50;10294921;28;97181;-83
2022/09/24 11:53:51;;;;;;;;;;;21.40;59.10;;;19.95;40.29;100075.41;10220045;28;96872;-83
2022/09/24 11:59:18;;;;;;;;;;;21.80;59.20;;;20.46;39.69;100071.25;10286055;28;96694;-83
2022/09/24 12:04:39;;;;;;;;;;;22.20;58.70;;;20.49;38.96;100065.34;10300089;28;96718;-84
2022/09/24 12:09:58;;;;;;;;;;;22.40;56.90;;;20.33;39.49;100074.13;10264674;28;96615;-84
2022/09/24 12:15:20;;;;;;;;;;;22.20;57.30;;;20.37;39.52;100053.72;10293968;28;98568;-83
2022/09/24 12:20:30;;;;;;;;;;;22.10;57.50;;;20.42;39.09;100018.75;10289145;28;97528;-83
2022/09/24 12:25:39;;;;;;;;;;;22.10;57.50;;;20.28;38.93;100036.25;10280488;28;98074;-82
2022/09/24 12:36:21;;;;;;;;;;;21.70;56.70;;;19.59;40.26;100041.31;10283935;28;97187;-81
2022/09/24 12:41:35;;;;;;;;;;;21.40;57.80;;;19.32;40.38;100043.56;10291773;28;98414;-81
2022/09/24 12:46:47;;;;;;;;;;;21.10;57.60;;;19.09;40.81;100032.69;10293744;28;97434;-80
2022/09/24 12:51:55;;;;;;;;;;;20.90;58.20;;;18.91;41.77;100031.69;10300611;28;96492;-81
2022/09/24 12:57:21;;;;;;;;;;;20.60;59.10;;;18.69;42.13;100033.19;10280093;28;96621;-80
2022/09/24 13:02:44;;;;;;;;;;;20.50;59.30;;;18.43;42.24;100035.09;10296392;28;97549;-81
2022/09/24 13:07:58;;;;;;;;;;;20.20;59.40;;;18.26;43.15;100030.50;10293222;28;96694;-81
2022/09/24 13:13:03;;;;;;;;;;;20.00;60.00;;;18.12;43.21;100016.38;10310121;28;96738;-81
2022/09/24 13:18:09;;;;;;;;;;;19.80;60.20;;;18.06;43.30;100022.66;10297061;28;96687;-81
2022/09/24 13:23:19;;;;;;;;;;;19.70;60.40;;;17.94;43.49;100019.84;10302122;28;98452;-81
2022/09/24 13:28:26;;;;;;;;;;;19.60;60.90;;;17.90;43.84;100027.53;10299016;28;98142;-81
2022/09/24 13:33:43;;;;;;;;;;;19.60;61.90;;;17.86;44.24;100014.72;10307199;28;96976;-81
2022/09/24 13:39:11;;;;;;;;;;;19.60;61.50;;;17.86;44.45;100014.72;10299671;28;98267;-81
2022/09/24 13:44:26;;;;;;;;;;;19.50;61.80;;;17.92;44.51;100011.97;10299630;28;97462;-82
2022/09/24 13:49:30;;;;;;;;;;;19.60;61.90;;;18.04;44.49;100001.34;10301417;28;96677;-82
2022/09/24 13:54:38;;;;;;;;;;;19.70;61.80;;;18.09;44.24;100004.19;10300953;28;97491;-82
2022/09/24 13:59:41;;;;;;;;;;;19.80;61.60;;;18.11;44.16;99987.81;10297667;28;96726;-82
2022/09/24 14:04:46;;;;;;;;;;;19.80;61.70;;;18.06;43.87;99987.69;10302623;28;96822;-83
2022/09/24 14:09:50;;;;;;;;;;;19.80;61.30;;;18.00;43.94;99985.88;10302938;28;96661;-82
2022/09/24 14:14:57;;;;;;;;;;;19.70;60.80;;;17.92;43.93;99990.47;10300267;28;97022;-83
2022/09/24 14:20:00;;;;;;;;;;;19.60;60.90;;;17.80;44.43;99992.25;10300595;28;98414;-83
2022/09/24 14:25:08;;;;;;;;;;;19.50;61.10;;;17.73;44.59;99986.09;10296418;28;96603;-85
2022/09/24 14:30:20;;;;;;;;;;;19.40;61.50;;;17.70;44.70;99977.66;10298914;28;97123;-85
2022/09/24 14:35:31;;;;;;;;;;;19.40;62.00;;;17.72;45.01;99980.97;10266275;28;96513;-85
2022/09/24 14:40:43;;;;;;;;;;;19.40;62.40;;;17.71;45.75;99973.91;10297794;28;96694;-84
2022/09/24 14:45:47;;;;;;;;;;;19.40;62.80;;;17.63;44.95;99975.84;10301730;28;96615;-86
2022/09/24 14:50:50;;;;;;;;;;;19.30;62.10;;;17.57;45.69;99971.34;10290939;28;96617;-86
2022/09/24 14:55:53;;;;;;;;;;;19.30;62.80;;;17.54;45.49;99981.69;10299066;28;97858;-86
2022/09/24 15:01:01;;;;;;;;;;;19.20;62.80;;;17.50;46.31;99977.78;10300305;28;96504;-85
2022/09/24 15:06:25;;;;;;;;;;;19.20;63.30;;;17.50;46.66;99988.53;10299520;28;96529;-85
2022/09/24 15:11:36;;;;;;;;;;;19.20;63.80;;;17.47;46.91;99981.75;10283410;28;97401;-86
2022/09/24 15:16:39;;;;;;;;;;;19.20;64.20;;;17.45;46.73;99972.25;10283770;28;97378;-85
2022/09/24 15:21:42;;;;;;;;;;;19.10;64.10;;;17.41;47.41;99976.41;10299769;28;96741;-85
2022/09/24 15:27:00;;;;;;;;;;;19.10;64.30;;;17.36;47.50;99982.44;10299161;28;96732;-86
2022/09/24 15:32:11;;;;;;;;;;;19.10;64.50;;;17.27;47.46;99984.56;10300656;28;96735;-85
2022/09/24 15:37:19;;;;;;;;;;;19.00;64.50;;;17.15;47.68;99972.84;10298363;28;96558;-85
2022/09/24 15:42:23;;;;;;;;;;;18.90;64.90;;;17.10;48.04;99972.69;10297664;28;96799;-85
2022/09/24 15:47:26;;;;;;;;;;;18.80;65.00;;;17.03;48.13;99974.56;10296560;28;96579;-85
2022/09/24 15:52:30;;;;;;;;;;;18.70;65.30;;;16.96;48.53;99971.94;10314721;28;98044;-85
2022/09/24 15:57:33;;;;;;;;;;;18.70;65.60;;;16.88;48.60;99974.06;10282132;28;96936;-85
2022/09/24 16:02:36;;;;;;;;;;;18.60;65.80;;;16.79;48.93;99968.94;10280456;28;96595;-85
2022/09/24 16:07:39;;;;;;;;;;;18.60;66.00;;;16.74;49.39;99967.94;10278882;28;96607;-85
2022/09/24 16:12:42;;;;;;;;;;;18.50;66.40;;;16.66;49.52;99962.78;10285920;28;96678;-85
2022/09/24 16:17:48;;;;;;;;;;;18.40;66.60;;;16.60;49.79;99964.44;10241880;28;96833;-85
2022/09/24 16:22:51;;;;;;;;;;;18.30;66.80;;;16.53;50.04;99974.38;10287338;28;97447;-85
2022/09/24 16:27:55;;;;;;;;;;;18.30;67.20;;;16.46;50.29;99963.69;10296214;28;97989;-85
2022/09/24 16:32:58;;;;;;;;;;;18.20;67.70;;;16.38;50.59;99963.09;10297721;28;96667;-85
2022/09/24 16:38:01;;;;;;;;;;;18.10;67.70;;;16.32;51.13;99956.72;10307649;28;97560;-85
2022/09/24 16:43:10;;;;;;;;;;;18.00;67.90;;;16.23;51.38;99958.78;10283564;28;97603;-84
2022/09/24 16:48:12;;;;;;;;;;;18.00;68.30;;;16.13;51.51;99957.56;10299604;28;96520;-83
2022/09/24 16:53:15;;;;;;;;;;;17.90;68.50;;;16.05;52.06;99961.31;10298187;28;97384;-83
2022/09/24 16:58:18;;;;;;;;;;;17.80;69.00;;;15.92;52.21;99951.44;10282049;28;96596;-83
2022/09/24 17:03:21;;;;;;;;;;;17.70;69.20;;;15.86;52.80;99962.16;10302048;28;96630;-84
2022/09/24 17:10:11;;;;;;;;;;;17.60;70.10;;;15.73;53.31;99963.00;10283593;28;98414;-84
2022/09/24 17:13:47;;;;;;;;;;;17.50;70.40;;;15.58;53.86;99967.72;10301430;28;97163;-84
2022/09/24 17:18:53;;;;;;;;;;;17.30;71.50;;;15.47;54.50;99972.66;10314760;28;97461;-84
2022/09/24 17:23:55;;;;;;;;;;;17.10;72.40;;;15.35;55.18;99973.47;10299723;28;96840;-84
2022/09/24 17:28:59;;;;;;;;;;;17.00;73.30;;;15.25;55.95;99973.88;10284485;28;97205;-84
2022/09/24 17:34:11;;;;;;;;;;;16.90;74.20;;;15.14;56.45;99977.13;10316459;28;98035;-84
2022/09/24 17:39:13;;;;;;;;;;;16.80;74.40;;;15.07;57.19;99989.69;10281347;28;98308;-86
2022/09/24 17:44:17;;;;;;;;;;;16.70;75.10;;;14.96;57.38;99978.53;10283618;28;96608;-86
2022/09/24 17:49:20;;;;;;;;;;;16.60;75.50;;;14.88;57.48;99981.41;10312959;28;97511;-87
2022/09/24 17:54:25;;;;;;;;;;;16.50;75.40;;;14.78;58.00;99990.81;10275333;28;97380;-90
2022/09/24 17:59:28;;;;;;;;;;;16.40;76.20;;;14.68;58.22;99992.00;10323429;28;97529;-88
2022/09/24 18:04:34;;;;;;;;;;;16.30;76.10;;;14.59;58.76;99993.22;10277287;28;96711;-88
2022/09/24 18:09:37;;;;;;;;;;;16.20;76.90;;;14.49;59.71;99989.25;10289021;28;96698;-83
2022/09/24 18:14:39;;;;;;;;;;;16.10;77.80;;;14.38;60.03;99993.28;10303542;28;97985;-84
2022/09/24 18:19:42;;;;;;;;;;;16.00;78.00;;;14.27;60.74;99997.31;10297371;28;96804;-85
2022/09/24 18:24:46;;;;;;;;;;;15.90;79.40;;;14.19;61.29;99997.50;10281971;28;97451;-84
2022/09/24 18:29:49;;;;;;;;;;;15.80;80.00;;;14.07;61.67;99999.06;10299478;28;97385;-86
2022/09/24 18:34:52;;;;;;;;;;;15.70;80.10;;;13.98;61.88;99990.38;10301027;28;96506;-84
2022/09/24 18:39:54;;;;;;;;;;;15.60;79.90;;;13.89;62.20;99999.53;10294688;28;96800;-84
2022/09/24 18:44:57;;;;;;;;;;;15.50;81.70;;;13.79;62.43;100001.72;10295874;28;96723;-82
2022/09/24 18:50:00;;;;;;;;;;;15.40;81.00;;;13.73;62.47;99994.47;10300137;28;96638;-89
2022/09/24 18:55:03;;;;;;;;;;;15.40;80.90;;;13.62;63.35;100002.00;10297046;28;97529;-88
2022/09/24 19:00:48;;;;;;;;;;;15.30;82.10;;;13.51;64.03;100004.38;10292710;28;96724;-84
2022/09/24 19:05:32;;;;;;;;;;;15.20;83.20;;;13.45;64.41;100008.63;10298293;28;97085;-83
2022/09/24 19:10:35;;;;;;;;;;;15.10;82.80;;;13.40;64.67;100008.38;10294320;28;97027;-80
2022/09/24 19:15:38;;;;;;;;;;;15.10;83.80;;;13.38;64.76;100000.56;10296284;28;97297;-84
2022/09/24 19:20:44;;;;;;;;;;;15.10;83.50;;;13.40;64.98;100003.03;10293593;28;98383;-84
2022/09/24 19:25:47;;;;;;;;;;;15.10;83.90;;;13.38;65.35;100003.22;10293881;28;97919;-83
2022/09/24 19:30:52;;;;;;;;;;;15.10;84.70;;;13.37;65.47;100006.94;10284121;28;98323;-82
2022/09/24 19:36:03;;;;;;;;;;;15.00;84.60;;;13.37;65.63;100001.59;10295254;28;96606;-82
2022/09/24 19:41:09;;;;;;;;;;;15.00;84.40;;;13.35;65.67;99992.09;10293468;28;98082;-82
2022/09/24 19:46:15;;;;;;;;;;;15.00;84.80;;;13.29;66.23;99998.19;10281634;28;98246;-83
2022/09/24 19:51:26;;;;;;;;;;;15.00;85.80;;;13.25;66.11;99994.25;10298392;28;97733;-83
2022/09/24 19:56:30;;;;;;;;;;;14.90;85.00;;;13.21;65.99;99993.00;10298249;28;96589;-83
2022/09/24 20:01:33;;;;;;;;;;;14.90;85.40;;;13.17;66.28;99997.84;10281983;28;97633;-83
2022/09/24 20:06:37;;;;;;;;;;;14.90;85.50;;;13.13;66.57;99996.56;10298266;28;96630;-83
2022/09/24 20:11:39;;;;;;;;;;;14.80;86.20;;;13.08;66.81;99999.81;10292680;28;97867;-83
2022/09/24 20:16:43;;;;;;;;;;;14.80;86.20;;;13.00;67.27;99999.91;10297443;28;96581;-83
2022/09/24 20:21:46;;;;;;;;;;;14.70;86.80;;;12.94;67.31;99989.19;10291446;28;97560;-83
2022/09/24 20:32:14;;;;;;;;;;;14.50;87.60;;;12.82;67.70;99994.16;10290324;28;98232;-82
2022/09/24 20:37:16;;;;;;;;;;;14.50;88.20;;;12.76;68.02;99990.41;10292857;28;96798;-82
2022/09/24 20:42:19;;;;;;;;;;;14.40;88.60;;;12.76;68.55;99992.25;10274441;28;96724;-85
2022/09/24 20:47:22;;;;;;;;;;;14.40;89.80;;;12.73;68.64;99993.47;10296328;28;97918;-85
2022/09/24 20:52:25;;;;;;;;;;;14.40;89.20;;;12.74;68.77;99996.94;10293722;28;96776;-84
2022/09/24 20:57:27;;;;;;;;;;;14.40;89.50;;;12.71;68.82;99992.81;10294808;28;97072;-85
2022/09/24 21:02:30;;;;;;;;;;;14.40;89.40;;;12.71;69.15;99984.81;10290969;28;97099;-84
2022/09/24 21:07:34;;;;;;;;;;;14.40;90.20;;;12.68;69.08;99981.69;10292776;28;97444;-85
2022/09/24 21:12:37;;;;;;;;;;;14.30;89.60;;;12.65;69.35;99988.22;10272269;28;97806;-84
2022/09/24 21:17:42;;;;;;;;;;;14.30;89.90;;;12.61;69.72;99980.81;10288194;28;96644;-84
2022/09/24 21:23:04;;;;;;;;;;;14.30;90.30;;;12.55;69.61;99977.88;10293738;28;96644;-84
2022/09/24 21:28:08;;;;;;;;;;;14.20;90.50;;;12.46;70.09;99984.28;10274809;28;96555;-84
2022/09/24 21:33:11;;;;;;;;;;;14.10;91.10;;;12.44;70.30;99974.84;10292928;28;96683;-84
2022/09/24 21:38:17;;;;;;;;;;;14.10;90.80;;;12.40;70.34;99982.38;10295251;28;96665;-84
2022/09/24 21:43:22;;;;;;;;;;;14.00;91.10;;;12.38;70.27;99980.91;10296753;28;96797;-84
2022/09/24 21:48:25;;;;;;;;;;;14.00;90.70;;;12.31;70.63;99984.31;10283844;28;96616;-84
2022/09/24 21:53:28;;;;;;;;;;;14.00;91.20;;;12.26;71.00;99976.03;10280604;28;96629;-84
2022/09/24 21:58:31;;;;;;;;;;;14.00;91.70;;;12.23;71.05;99988.88;10299155;28;98535;-84
2022/09/24 22:03:34;;;;;;;;;;;13.90;91.70;;;12.16;71.25;99979.97;10290993;28;98211;-84
2022/09/24 22:08:36;;;;;;;;;;;13.90;91.50;;;12.09;71.23;99981.72;10298573;28;97653;-84
2022/09/24 22:13:39;;;;;;;;;;;13.80;91.90;;;11.99;71.81;99976.66;10310834;28;97343;-84
2022/09/24 22:18:42;;;;;;;;;;;13.70;92.40;;;11.89;72.13;99982.28;10309873;28;96760;-85
2022/09/24 22:23:45;;;;;;;;;;;13.60;92.30;;;11.78;72.20;99975.50;10283723;28;97083;-84
2022/09/24 22:28:47;;;;;;;;;;;13.50;92.40;;;11.72;72.44;99984.22;10283236;28;96548;-84
2022/09/24 22:39:12;;;;;;;;;;;13.40;92.50;;;11.64;72.73;99963.00;10297869;28;97029;-84
2022/09/24 22:44:14;;;;;;;;;;;13.30;93.00;;;11.58;72.84;99965.56;10299348;28;98243;-85
2022/09/24 22:49:18;;;;;;;;;;;13.30;92.90;;;11.51;73.27;99958.31;10301270;28;96776;-84
2022/09/24 22:54:23;;;;;;;;;;;13.20;92.90;;;11.48;73.18;99963.16;10295574;28;96798;-84
2022/09/24 22:59:25;;;;;;;;;;;13.20;93.50;;;11.41;73.58;99965.69;10282300;28;96635;-84
2022/09/24 23:04:28;;;;;;;;;;;13.10;93.00;;;11.37;73.70;99956.41;10282701;28;96481;-83
2022/09/24 23:09:31;;;;;;;;;;;13.10;93.10;;;11.38;73.71;99957.25;10294511;28;96918;-84
2022/09/24 23:14:34;;;;;;;;;;;13.10;93.50;;;11.31;73.60;99957.13;10298734;28;96555;-84
2022/09/24 23:19:48;;;;;;;;;;;13.00;93.70;;;11.27;73.96;99955.81;10296092;28;96624;-83
2022/09/24 23:24:52;;;;;;;;;;;12.90;93.50;;;11.25;74.14;99957.84;10297091;28;96632;-83
2022/09/24 23:29:55;;;;;;;;;;;12.90;94.10;;;11.20;74.27;99961.03;10314449;28;96732;-84
2022/09/24 23:34:59;;;;;;;;;;;12.90;94.20;;;11.17;74.47;99973.88;10310863;28;97551;-84
2022/09/24 23:40:02;;;;;;;;;;;12.80;94.30;;;11.14;74.98;99958.25;10297293;28;96830;-84
2022/09/24 23:45:05;;;;;;;;;;;12.80;94.10;;;11.11;74.87;99954.13;10294892;28;97403;-84
2022/09/24 23:50:08;;;;;;;;;;;12.80;94.50;;;11.10;75.23;99955.13;10296556;28;96771;-85